sensor_id;sensor_type;location;lat;lon;timestamp;P1;durP1;ratioP1;P2;durP2;ratioP2
6757;SDS011;3416;53.074;8.822;2024-02-23T00:00:17;1.50;;;0.75;;
6757;SDS011;3416;53.074;8.822;2024-02-23T00:02:44;1.83;;;1.15;;
6757;SDS011;3416;53.074;8.822;2024-02-23T00:05:11;1.75;;;1.05;;
6757;SDS011;3416;53.074;8.822;2024-02-23T00:07:38;1.92;;;0.88;;
6757;SDS011;3416;53.074;8.822;2024-02-23T00:10:07;0.90;;;0.70;;
6757;SDS011;3416;53.074;8.822;2024-02-23T00:12:34;0.85;;;0.70;;
6757;SDS011;3416;53.074;8.822;2024-02-23T00:15:01;1.17;;;0.70;;
6757;SDS011;3416;53.074;8.822;2024-02-23T00:17:29;0.80;;;0.60;;
6757;SDS011;3416;53.074;8.822;2024-02-23T00:19:56;0.77;;;0.50;;
6757;SDS011;3416;53.074;8.822;2024-02-23T00:22:23;1.50;;;0.70;;
6757;SDS011;3416;53.074;8.822;2024-02-23T00:24:51;0.80;;;0.70;;
6757;SDS011;3416;53.074;8.822;2024-02-23T00:27:19;1.02;;;0.80;;
6757;SDS011;3416;53.074;8.822;2024-02-23T00:29:46;0.70;;;0.68;;
6757;SDS011;3416;53.074;8.822;2024-02-23T00:32:13;0.90;;;0.80;;
6757;SDS011;3416;53.074;8.822;2024-02-23T00:34:40;0.80;;;0.70;;
6757;SDS011;3416;53.074;8.822;2024-02-23T00:37:07;1.33;;;0.80;;
6757;SDS011;3416;53.074;8.822;2024-02-23T00:39:34;4.13;;;1.42;;
6757;SDS011;3416;53.074;8.822;2024-02-23T00:42:01;0.95;;;0.85;;
6757;SDS011;3416;53.074;8.822;2024-02-23T00:44:30;1.42;;;0.82;;
6757;SDS011;3416;53.074;8.822;2024-02-23T00:46:57;0.93;;;0.70;;
6757;SDS011;3416;53.074;8.822;2024-02-23T00:49:26;1.52;;;0.85;;
6757;SDS011;3416;53.074;8.822;2024-02-23T00:51:52;1.15;;;1.05;;
6757;SDS011;3416;53.074;8.822;2024-02-23T00:54:19;1.27;;;0.80;;
6757;SDS011;3416;53.074;8.822;2024-02-23T00:56:46;0.98;;;0.65;;
6757;SDS011;3416;53.074;8.822;2024-02-23T00:59:13;1.45;;;0.80;;
6757;SDS011;3416;53.074;8.822;2024-02-23T01:01:41;1.02;;;0.70;;
6757;SDS011;3416;53.074;8.822;2024-02-23T01:04:08;2.78;;;0.60;;
6757;SDS011;3416;53.074;8.822;2024-02-23T01:06:35;0.70;;;0.50;;
6757;SDS011;3416;53.074;8.822;2024-02-23T01:09:02;1.00;;;0.50;;
6757;SDS011;3416;53.074;8.822;2024-02-23T01:11:30;1.13;;;0.50;;
6757;SDS011;3416;53.074;8.822;2024-02-23T01:13:57;0.70;;;0.50;;
6757;SDS011;3416;53.074;8.822;2024-02-23T01:16:24;0.70;;;0.50;;
6757;SDS011;3416;53.074;8.822;2024-02-23T01:18:52;0.82;;;0.50;;
6757;SDS011;3416;53.074;8.822;2024-02-23T01:21:19;1.00;;;0.50;;
6757;SDS011;3416;53.074;8.822;2024-02-23T01:23:46;0.70;;;0.50;;
6757;SDS011;3416;53.074;8.822;2024-02-23T01:26:13;3.90;;;0.70;;
6757;SDS011;3416;53.074;8.822;2024-02-23T01:28:40;3.95;;;0.50;;
6757;SDS011;3416;53.074;8.822;2024-02-23T01:31:08;0.70;;;0.70;;
6757;SDS011;3416;53.074;8.822;2024-02-23T01:33:36;0.75;;;0.50;;
6757;SDS011;3416;53.074;8.822;2024-02-23T01:36:05;0.70;;;0.40;;
6757;SDS011;3416;53.074;8.822;2024-02-23T01:38:34;1.20;;;0.68;;
6757;SDS011;3416;53.074;8.822;2024-02-23T01:41:01;0.60;;;0.50;;
6757;SDS011;3416;53.074;8.822;2024-02-23T01:43:28;0.60;;;0.50;;
6757;SDS011;3416;53.074;8.822;2024-02-23T01:45:55;0.90;;;0.60;;
6757;SDS011;3416;53.074;8.822;2024-02-23T01:48:22;1.13;;;0.70;;
6757;SDS011;3416;53.074;8.822;2024-02-23T01:50:49;0.80;;;0.63;;
6757;SDS011;3416;53.074;8.822;2024-02-23T01:53:18;0.70;;;0.57;;
6757;SDS011;3416;53.074;8.822;2024-02-23T01:55:45;1.30;;;0.60;;
6757;SDS011;3416;53.074;8.822;2024-02-23T01:58:13;0.98;;;0.68;;
6757;SDS011;3416;53.074;8.822;2024-02-23T02:00:41;0.60;;;0.40;;
6757;SDS011;3416;53.074;8.822;2024-02-23T02:03:07;0.60;;;0.43;;
6757;SDS011;3416;53.074;8.822;2024-02-23T02:05:37;0.70;;;0.50;;
6757;SDS011;3416;53.074;8.822;2024-02-23T02:08:04;1.75;;;0.60;;
6757;SDS011;3416;53.074;8.822;2024-02-23T02:10:33;0.98;;;0.80;;
6757;SDS011;3416;53.074;8.822;2024-02-23T02:13:03;0.60;;;0.50;;
6757;SDS011;3416;53.074;8.822;2024-02-23T02:15:30;1.77;;;0.40;;
6757;SDS011;3416;53.074;8.822;2024-02-23T02:17:57;1.98;;;0.50;;
6757;SDS011;3416;53.074;8.822;2024-02-23T02:20:24;0.60;;;0.40;;
6757;SDS011;3416;53.074;8.822;2024-02-23T02:22:51;0.70;;;0.40;;
6757;SDS011;3416;53.074;8.822;2024-02-23T02:25:18;1.95;;;0.45;;
6757;SDS011;3416;53.074;8.822;2024-02-23T02:27:46;0.70;;;0.40;;
6757;SDS011;3416;53.074;8.822;2024-02-23T02:30:14;0.90;;;0.50;;
6757;SDS011;3416;53.074;8.822;2024-02-23T02:32:41;0.65;;;0.43;;
6757;SDS011;3416;53.074;8.822;2024-02-23T02:35:09;2.10;;;0.60;;
6757;SDS011;3416;53.074;8.822;2024-02-23T02:37:37;0.60;;;0.50;;
6757;SDS011;3416;53.074;8.822;2024-02-23T02:40:05;3.83;;;0.82;;
6757;SDS011;3416;53.074;8.822;2024-02-23T02:42:32;0.80;;;0.80;;
6757;SDS011;3416;53.074;8.822;2024-02-23T02:45:01;2.38;;;1.02;;
6757;SDS011;3416;53.074;8.822;2024-02-23T02:47:28;0.80;;;0.73;;
6757;SDS011;3416;53.074;8.822;2024-02-23T02:49:55;1.55;;;1.00;;
6757;SDS011;3416;53.074;8.822;2024-02-23T02:52:22;1.10;;;0.80;;
6757;SDS011;3416;53.074;8.822;2024-02-23T02:54:50;0.90;;;0.90;;
6757;SDS011;3416;53.074;8.822;2024-02-23T02:57:16;0.88;;;0.88;;
6757;SDS011;3416;53.074;8.822;2024-02-23T02:59:43;1.00;;;0.90;;
6757;SDS011;3416;53.074;8.822;2024-02-23T03:02:13;1.63;;;0.95;;
6757;SDS011;3416;53.074;8.822;2024-02-23T03:04:46;2.95;;;1.00;;
6757;SDS011;3416;53.074;8.822;2024-02-23T03:07:13;1.33;;;1.15;;
6757;SDS011;3416;53.074;8.822;2024-02-23T03:09:40;1.63;;;1.17;;
6757;SDS011;3416;53.074;8.822;2024-02-23T03:12:07;2.08;;;0.98;;
6757;SDS011;3416;53.074;8.822;2024-02-23T03:14:34;1.75;;;0.80;;
6757;SDS011;3416;53.074;8.822;2024-02-23T03:17:02;0.90;;;0.80;;
6757;SDS011;3416;53.074;8.822;2024-02-23T03:19:31;1.58;;;0.80;;
6757;SDS011;3416;53.074;8.822;2024-02-23T03:21:58;1.20;;;0.73;;
6757;SDS011;3416;53.074;8.822;2024-02-23T03:24:25;1.55;;;0.70;;
6757;SDS011;3416;53.074;8.822;2024-02-23T03:26:52;2.50;;;1.27;;
6757;SDS011;3416;53.074;8.822;2024-02-23T03:29:20;2.55;;;1.33;;
6757;SDS011;3416;53.074;8.822;2024-02-23T03:31:49;3.40;;;1.20;;
6757;SDS011;3416;53.074;8.822;2024-02-23T03:34:16;3.90;;;1.65;;
6757;SDS011;3416;53.074;8.822;2024-02-23T03:36:44;1.65;;;1.35;;
6757;SDS011;3416;53.074;8.822;2024-02-23T03:39:11;1.70;;;1.10;;
6757;SDS011;3416;53.074;8.822;2024-02-23T03:41:38;1.73;;;1.20;;
6757;SDS011;3416;53.074;8.822;2024-02-23T03:44:05;2.50;;;1.83;;
6757;SDS011;3416;53.074;8.822;2024-02-23T03:46:33;2.90;;;1.80;;
6757;SDS011;3416;53.074;8.822;2024-02-23T03:49:00;3.22;;;2.88;;
6757;SDS011;3416;53.074;8.822;2024-02-23T03:51:27;4.10;;;2.22;;
6757;SDS011;3416;53.074;8.822;2024-02-23T03:53:56;7.38;;;2.83;;
6757;SDS011;3416;53.074;8.822;2024-02-23T03:56:23;2.13;;;1.83;;
6757;SDS011;3416;53.074;8.822;2024-02-23T03:58:50;2.83;;;2.42;;
6757;SDS011;3416;53.074;8.822;2024-02-23T04:01:17;4.70;;;2.60;;
6757;SDS011;3416;53.074;8.822;2024-02-23T04:03:44;14.05;;;3.65;;
6757;SDS011;3416;53.074;8.822;2024-02-23T04:06:10;5.95;;;2.60;;
6757;SDS011;3416;53.074;8.822;2024-02-23T04:08:37;4.35;;;2.40;;
6757;SDS011;3416;53.074;8.822;2024-02-23T04:11:07;3.80;;;2.47;;
6757;SDS011;3416;53.074;8.822;2024-02-23T04:13:34;5.75;;;2.17;;
6757;SDS011;3416;53.074;8.822;2024-02-23T04:16:01;2.97;;;1.98;;
6757;SDS011;3416;53.074;8.822;2024-02-23T04:18:28;2.30;;;2.10;;
6757;SDS011;3416;53.074;8.822;2024-02-23T04:20:55;4.47;;;2.00;;
6757;SDS011;3416;53.074;8.822;2024-02-23T04:23:22;3.25;;;2.40;;
6757;SDS011;3416;53.074;8.822;2024-02-23T04:25:49;2.97;;;2.50;;
6757;SDS011;3416;53.074;8.822;2024-02-23T04:28:18;2.53;;;2.03;;
6757;SDS011;3416;53.074;8.822;2024-02-23T04:30:45;3.70;;;1.65;;
6757;SDS011;3416;53.074;8.822;2024-02-23T04:33:12;1.95;;;1.75;;
6757;SDS011;3416;53.074;8.822;2024-02-23T04:35:39;2.50;;;1.58;;
6757;SDS011;3416;53.074;8.822;2024-02-23T04:38:06;2.03;;;1.83;;
6757;SDS011;3416;53.074;8.822;2024-02-23T04:40:33;3.97;;;1.50;;
6757;SDS011;3416;53.074;8.822;2024-02-23T04:43:00;2.20;;;1.30;;
6757;SDS011;3416;53.074;8.822;2024-02-23T04:45:29;2.13;;;1.38;;
6757;SDS011;3416;53.074;8.822;2024-02-23T04:47:56;3.83;;;1.50;;
6757;SDS011;3416;53.074;8.822;2024-02-23T04:50:23;2.88;;;1.00;;
6757;SDS011;3416;53.074;8.822;2024-02-23T04:52:50;2.03;;;1.10;;
6757;SDS011;3416;53.074;8.822;2024-02-23T04:55:17;6.68;;;1.08;;
6757;SDS011;3416;53.074;8.822;2024-02-23T04:57:44;3.47;;;1.08;;
6757;SDS011;3416;53.074;8.822;2024-02-23T05:00:11;4.28;;;1.10;;
6757;SDS011;3416;53.074;8.822;2024-02-23T05:02:39;2.90;;;0.98;;
6757;SDS011;3416;53.074;8.822;2024-02-23T05:05:06;2.40;;;1.23;;
6757;SDS011;3416;53.074;8.822;2024-02-23T05:07:33;3.20;;;1.20;;
6757;SDS011;3416;53.074;8.822;2024-02-23T05:10:00;3.25;;;1.08;;
6757;SDS011;3416;53.074;8.822;2024-02-23T05:12:29;2.85;;;0.90;;
6757;SDS011;3416;53.074;8.822;2024-02-23T05:14:55;1.98;;;0.88;;
6757;SDS011;3416;53.074;8.822;2024-02-23T05:17:22;1.40;;;1.20;;
6757;SDS011;3416;53.074;8.822;2024-02-23T05:19:51;2.72;;;1.25;;
6757;SDS011;3416;53.074;8.822;2024-02-23T05:22:18;5.45;;;1.40;;
6757;SDS011;3416;53.074;8.822;2024-02-23T05:24:45;3.03;;;1.40;;
6757;SDS011;3416;53.074;8.822;2024-02-23T05:27:12;2.92;;;1.38;;
6757;SDS011;3416;53.074;8.822;2024-02-23T05:29:39;5.65;;;1.58;;
6757;SDS011;3416;53.074;8.822;2024-02-23T05:32:06;4.70;;;1.77;;
6757;SDS011;3416;53.074;8.822;2024-02-23T05:34:33;3.90;;;1.75;;
6757;SDS011;3416;53.074;8.822;2024-02-23T05:37:02;3.80;;;2.10;;
6757;SDS011;3416;53.074;8.822;2024-02-23T05:39:29;3.78;;;2.20;;
6757;SDS011;3416;53.074;8.822;2024-02-23T05:41:56;5.53;;;2.25;;
6757;SDS011;3416;53.074;8.822;2024-02-23T05:44:24;2.63;;;2.20;;
6757;SDS011;3416;53.074;8.822;2024-02-23T05:46:51;4.53;;;2.50;;
6757;SDS011;3416;53.074;8.822;2024-02-23T05:49:18;4.32;;;2.30;;
6757;SDS011;3416;53.074;8.822;2024-02-23T05:51:45;2.92;;;2.50;;
6757;SDS011;3416;53.074;8.822;2024-02-23T05:54:14;5.03;;;4.22;;
6757;SDS011;3416;53.074;8.822;2024-02-23T05:56:40;7.47;;;2.90;;
6757;SDS011;3416;53.074;8.822;2024-02-23T05:59:07;4.40;;;3.35;;
6757;SDS011;3416;53.074;8.822;2024-02-23T06:01:34;5.93;;;3.15;;
6757;SDS011;3416;53.074;8.822;2024-02-23T06:04:01;6.10;;;3.50;;
6757;SDS011;3416;53.074;8.822;2024-02-23T06:06:28;5.20;;;3.00;;
6757;SDS011;3416;53.074;8.822;2024-02-23T06:08:56;6.25;;;3.40;;
6757;SDS011;3416;53.074;8.822;2024-02-23T06:11:24;3.97;;;3.30;;
6757;SDS011;3416;53.074;8.822;2024-02-23T06:13:51;7.55;;;3.13;;
6757;SDS011;3416;53.074;8.822;2024-02-23T06:16:18;4.38;;;3.10;;
6757;SDS011;3416;53.074;8.822;2024-02-23T06:18:45;5.53;;;3.00;;
6757;SDS011;3416;53.074;8.822;2024-02-23T06:21:15;7.00;;;3.35;;
6757;SDS011;3416;53.074;8.822;2024-02-23T06:23:45;6.57;;;2.90;;
6757;SDS011;3416;53.074;8.822;2024-02-23T06:26:12;5.80;;;2.72;;
6757;SDS011;3416;53.074;8.822;2024-02-23T06:28:43;5.88;;;3.30;;
6757;SDS011;3416;53.074;8.822;2024-02-23T06:31:10;7.22;;;2.38;;
6757;SDS011;3416;53.074;8.822;2024-02-23T06:33:37;6.53;;;3.55;;
6757;SDS011;3416;53.074;8.822;2024-02-23T06:36:06;5.60;;;2.60;;
6757;SDS011;3416;53.074;8.822;2024-02-23T06:38:33;3.45;;;2.83;;
6757;SDS011;3416;53.074;8.822;2024-02-23T06:41:00;11.80;;;2.78;;
6757;SDS011;3416;53.074;8.822;2024-02-23T06:43:27;6.35;;;3.05;;
6757;SDS011;3416;53.074;8.822;2024-02-23T06:45:56;6.22;;;3.05;;
6757;SDS011;3416;53.074;8.822;2024-02-23T06:48:23;9.65;;;3.78;;
6757;SDS011;3416;53.074;8.822;2024-02-23T06:50:51;6.47;;;2.25;;
6757;SDS011;3416;53.074;8.822;2024-02-23T06:53:18;2.83;;;1.77;;
6757;SDS011;3416;53.074;8.822;2024-02-23T06:55:45;5.70;;;2.15;;
6757;SDS011;3416;53.074;8.822;2024-02-23T06:58:12;3.95;;;2.00;;
6757;SDS011;3416;53.074;8.822;2024-02-23T07:00:40;4.88;;;2.67;;
6757;SDS011;3416;53.074;8.822;2024-02-23T07:03:08;3.20;;;2.50;;
6757;SDS011;3416;53.074;8.822;2024-02-23T07:05:35;4.88;;;2.00;;
6757;SDS011;3416;53.074;8.822;2024-02-23T07:08:02;3.75;;;1.83;;
6757;SDS011;3416;53.074;8.822;2024-02-23T07:10:29;3.72;;;2.00;;
6757;SDS011;3416;53.074;8.822;2024-02-23T07:12:56;5.57;;;2.95;;
6757;SDS011;3416;53.074;8.822;2024-02-23T07:15:23;6.78;;;2.22;;
6757;SDS011;3416;53.074;8.822;2024-02-23T07:17:51;2.78;;;2.00;;
6757;SDS011;3416;53.074;8.822;2024-02-23T07:20:21;7.50;;;2.33;;
6757;SDS011;3416;53.074;8.822;2024-02-23T07:22:48;6.35;;;2.28;;
6757;SDS011;3416;53.074;8.822;2024-02-23T07:25:15;5.95;;;2.15;;
6757;SDS011;3416;53.074;8.822;2024-02-23T07:27:43;7.38;;;3.00;;
6757;SDS011;3416;53.074;8.822;2024-02-23T07:30:11;4.20;;;2.40;;
6757;SDS011;3416;53.074;8.822;2024-02-23T07:32:38;4.88;;;2.20;;
6757;SDS011;3416;53.074;8.822;2024-02-23T07:35:05;6.32;;;2.78;;
6757;SDS011;3416;53.074;8.822;2024-02-23T07:37:34;5.10;;;2.85;;
6757;SDS011;3416;53.074;8.822;2024-02-23T07:40:02;3.50;;;1.90;;
6757;SDS011;3416;53.074;8.822;2024-02-23T07:42:29;3.97;;;2.65;;
6757;SDS011;3416;53.074;8.822;2024-02-23T07:44:56;8.80;;;2.50;;
6757;SDS011;3416;53.074;8.822;2024-02-23T07:47:23;4.53;;;2.33;;
6757;SDS011;3416;53.074;8.822;2024-02-23T07:49:52;5.38;;;1.90;;
6757;SDS011;3416;53.074;8.822;2024-02-23T07:52:19;2.30;;;1.80;;
6757;SDS011;3416;53.074;8.822;2024-02-23T07:54:49;4.78;;;2.05;;
6757;SDS011;3416;53.074;8.822;2024-02-23T07:57:17;5.28;;;1.92;;
6757;SDS011;3416;53.074;8.822;2024-02-23T07:59:44;3.38;;;1.67;;
6757;SDS011;3416;53.074;8.822;2024-02-23T08:02:11;4.32;;;2.17;;
6757;SDS011;3416;53.074;8.822;2024-02-23T08:04:39;3.42;;;2.13;;
6757;SDS011;3416;53.074;8.822;2024-02-23T08:07:07;4.50;;;1.63;;
6757;SDS011;3416;53.074;8.822;2024-02-23T08:09:34;3.60;;;2.20;;
6757;SDS011;3416;53.074;8.822;2024-02-23T08:12:02;7.03;;;2.17;;
6757;SDS011;3416;53.074;8.822;2024-02-23T08:14:30;6.60;;;2.03;;
6757;SDS011;3416;53.074;8.822;2024-02-23T08:16:58;7.05;;;1.98;;
6757;SDS011;3416;53.074;8.822;2024-02-23T08:19:25;4.22;;;1.63;;
6757;SDS011;3416;53.074;8.822;2024-02-23T08:21:52;6.30;;;2.50;;
6757;SDS011;3416;53.074;8.822;2024-02-23T08:24:19;6.00;;;3.40;;
6757;SDS011;3416;53.074;8.822;2024-02-23T08:26:46;4.55;;;1.30;;
6757;SDS011;3416;53.074;8.822;2024-02-23T08:29:14;9.05;;;3.00;;
6757;SDS011;3416;53.074;8.822;2024-02-23T08:31:41;5.28;;;1.65;;
6757;SDS011;3416;53.074;8.822;2024-02-23T08:34:08;6.65;;;2.00;;
6757;SDS011;3416;53.074;8.822;2024-02-23T08:36:35;4.95;;;2.00;;
6757;SDS011;3416;53.074;8.822;2024-02-23T08:39:02;9.45;;;2.60;;
6757;SDS011;3416;53.074;8.822;2024-02-23T08:41:29;5.95;;;1.67;;
6757;SDS011;3416;53.074;8.822;2024-02-23T08:43:56;10.30;;;2.38;;
6757;SDS011;3416;53.074;8.822;2024-02-23T08:46:25;8.35;;;2.55;;
6757;SDS011;3416;53.074;8.822;2024-02-23T08:48:52;5.18;;;2.38;;
6757;SDS011;3416;53.074;8.822;2024-02-23T08:51:20;4.70;;;1.80;;
6757;SDS011;3416;53.074;8.822;2024-02-23T08:53:47;7.10;;;2.35;;
6757;SDS011;3416;53.074;8.822;2024-02-23T08:56:14;8.90;;;1.88;;
6757;SDS011;3416;53.074;8.822;2024-02-23T08:58:41;6.63;;;2.10;;
6757;SDS011;3416;53.074;8.822;2024-02-23T09:01:08;10.70;;;2.13;;
6757;SDS011;3416;53.074;8.822;2024-02-23T09:03:37;4.13;;;1.52;;
6757;SDS011;3416;53.074;8.822;2024-02-23T09:06:04;10.03;;;2.93;;
6757;SDS011;3416;53.074;8.822;2024-02-23T09:08:31;5.88;;;1.85;;
6757;SDS011;3416;53.074;8.822;2024-02-23T09:10:58;8.15;;;2.42;;
6757;SDS011;3416;53.074;8.822;2024-02-23T09:13:25;9.10;;;1.65;;
6757;SDS011;3416;53.074;8.822;2024-02-23T09:15:52;4.90;;;2.17;;
6757;SDS011;3416;53.074;8.822;2024-02-23T09:18:19;9.57;;;3.75;;
6757;SDS011;3416;53.074;8.822;2024-02-23T09:20:48;3.78;;;1.67;;
6757;SDS011;3416;53.074;8.822;2024-02-23T09:23:15;7.93;;;2.65;;
6757;SDS011;3416;53.074;8.822;2024-02-23T09:25:42;3.30;;;2.33;;
6757;SDS011;3416;53.074;8.822;2024-02-23T09:28:09;7.18;;;2.90;;
6757;SDS011;3416;53.074;8.822;2024-02-23T09:30:37;5.60;;;2.08;;
6757;SDS011;3416;53.074;8.822;2024-02-23T09:33:04;4.50;;;2.25;;
6757;SDS011;3416;53.074;8.822;2024-02-23T09:35:31;5.78;;;1.75;;
6757;SDS011;3416;53.074;8.822;2024-02-23T09:38:00;6.70;;;2.30;;
6757;SDS011;3416;53.074;8.822;2024-02-23T09:40:27;9.35;;;3.28;;
6757;SDS011;3416;53.074;8.822;2024-02-23T09:42:55;5.53;;;2.55;;
6757;SDS011;3416;53.074;8.822;2024-02-23T09:45:24;5.65;;;2.03;;
6757;SDS011;3416;53.074;8.822;2024-02-23T09:47:51;2.97;;;1.80;;
6757;SDS011;3416;53.074;8.822;2024-02-23T09:50:20;6.85;;;3.10;;
6757;SDS011;3416;53.074;8.822;2024-02-23T09:52:49;10.38;;;2.47;;
6757;SDS011;3416;53.074;8.822;2024-02-23T09:55:18;4.95;;;2.22;;
6757;SDS011;3416;53.074;8.822;2024-02-23T09:57:46;7.95;;;2.55;;
6757;SDS011;3416;53.074;8.822;2024-02-23T10:00:15;2.60;;;1.40;;
6757;SDS011;3416;53.074;8.822;2024-02-23T10:02:43;4.90;;;1.65;;
6757;SDS011;3416;53.074;8.822;2024-02-23T10:05:10;4.30;;;2.17;;
6757;SDS011;3416;53.074;8.822;2024-02-23T10:07:38;8.77;;;2.85;;
6757;SDS011;3416;53.074;8.822;2024-02-23T10:10:06;4.32;;;1.65;;
6757;SDS011;3416;53.074;8.822;2024-02-23T10:12:35;6.07;;;3.03;;
6757;SDS011;3416;53.074;8.822;2024-02-23T10:15:02;2.78;;;1.80;;
6757;SDS011;3416;53.074;8.822;2024-02-23T10:17:30;27.08;;;5.72;;
6757;SDS011;3416;53.074;8.822;2024-02-23T10:19:58;4.68;;;2.05;;
6757;SDS011;3416;53.074;8.822;2024-02-23T10:22:30;8.02;;;2.15;;
6757;SDS011;3416;53.074;8.822;2024-02-23T10:24:57;4.22;;;2.08;;
6757;SDS011;3416;53.074;8.822;2024-02-23T10:27:24;4.65;;;2.50;;
6757;SDS011;3416;53.074;8.822;2024-02-23T10:29:52;2.95;;;1.50;;
6757;SDS011;3416;53.074;8.822;2024-02-23T10:32:20;6.22;;;1.70;;
6757;SDS011;3416;53.074;8.822;2024-02-23T10:34:47;4.47;;;1.60;;
6757;SDS011;3416;53.074;8.822;2024-02-23T10:37:16;6.18;;;2.63;;
6757;SDS011;3416;53.074;8.822;2024-02-23T10:39:46;7.50;;;2.00;;
6757;SDS011;3416;53.074;8.822;2024-02-23T10:42:18;4.80;;;1.58;;
6757;SDS011;3416;53.074;8.822;2024-02-23T10:44:58;3.55;;;1.25;;
6757;SDS011;3416;53.074;8.822;2024-02-23T10:47:32;6.53;;;2.00;;
6757;SDS011;3416;53.074;8.822;2024-02-23T10:50:03;3.67;;;1.45;;
6757;SDS011;3416;53.074;8.822;2024-02-23T10:52:38;4.55;;;1.45;;
6757;SDS011;3416;53.074;8.822;2024-02-23T10:55:12;8.15;;;2.03;;
6757;SDS011;3416;53.074;8.822;2024-02-23T10:57:42;4.60;;;1.80;;
6757;SDS011;3416;53.074;8.822;2024-02-23T11:00:17;3.92;;;1.50;;
6757;SDS011;3416;53.074;8.822;2024-02-23T11:02:51;4.45;;;1.40;;
6757;SDS011;3416;53.074;8.822;2024-02-23T11:05:23;4.32;;;1.88;;
6757;SDS011;3416;53.074;8.822;2024-02-23T11:07:55;7.50;;;1.85;;
6757;SDS011;3416;53.074;8.822;2024-02-23T11:10:28;2.85;;;1.70;;
6757;SDS011;3416;53.074;8.822;2024-02-23T11:12:59;4.40;;;2.25;;
6757;SDS011;3416;53.074;8.822;2024-02-23T11:15:41;2.80;;;1.35;;
6757;SDS011;3416;53.074;8.822;2024-02-23T11:18:23;2.13;;;1.45;;
6757;SDS011;3416;53.074;8.822;2024-02-23T11:21:00;4.10;;;1.98;;
6757;SDS011;3416;53.074;8.822;2024-02-23T11:23:38;5.93;;;1.63;;
6757;SDS011;3416;53.074;8.822;2024-02-23T11:26:14;7.07;;;2.35;;
6757;SDS011;3416;53.074;8.822;2024-02-23T11:28:43;4.90;;;2.10;;
6757;SDS011;3416;53.074;8.822;2024-02-23T11:31:20;6.97;;;1.98;;
6757;SDS011;3416;53.074;8.822;2024-02-23T11:33:48;3.60;;;1.30;;
6757;SDS011;3416;53.074;8.822;2024-02-23T11:36:27;4.28;;;2.05;;
6757;SDS011;3416;53.074;8.822;2024-02-23T11:38:56;5.32;;;1.42;;
6757;SDS011;3416;53.074;8.822;2024-02-23T11:41:24;3.83;;;2.35;;
6757;SDS011;3416;53.074;8.822;2024-02-23T11:43:53;7.47;;;1.80;;
6757;SDS011;3416;53.074;8.822;2024-02-23T11:46:22;10.00;;;1.80;;
6757;SDS011;3416;53.074;8.822;2024-02-23T11:48:49;3.55;;;1.55;;
6757;SDS011;3416;53.074;8.822;2024-02-23T11:51:19;2.70;;;1.35;;
6757;SDS011;3416;53.074;8.822;2024-02-23T11:53:46;3.17;;;1.50;;
6757;SDS011;3416;53.074;8.822;2024-02-23T11:56:13;5.88;;;2.03;;
6757;SDS011;3416;53.074;8.822;2024-02-23T11:58:41;3.65;;;1.27;;
6757;SDS011;3416;53.074;8.822;2024-02-23T12:01:08;1.85;;;1.15;;
6757;SDS011;3416;53.074;8.822;2024-02-23T12:03:36;6.70;;;2.10;;
6757;SDS011;3416;53.074;8.822;2024-02-23T12:06:04;2.35;;;1.13;;
6757;SDS011;3416;53.074;8.822;2024-02-23T12:08:33;3.25;;;1.80;;
6757;SDS011;3416;53.074;8.822;2024-02-23T12:11:03;6.72;;;1.42;;
6757;SDS011;3416;53.074;8.822;2024-02-23T12:13:33;5.65;;;2.50;;
6757;SDS011;3416;53.074;8.822;2024-02-23T12:16:00;3.38;;;2.10;;
6757;SDS011;3416;53.074;8.822;2024-02-23T12:18:27;7.18;;;1.50;;
6757;SDS011;3416;53.074;8.822;2024-02-23T12:21:00;2.72;;;1.13;;
6757;SDS011;3416;53.074;8.822;2024-02-23T12:23:27;4.30;;;1.55;;
6757;SDS011;3416;53.074;8.822;2024-02-23T12:26:04;1.80;;;1.38;;
6757;SDS011;3416;53.074;8.822;2024-02-23T12:28:31;3.10;;;1.25;;
6757;SDS011;3416;53.074;8.822;2024-02-23T12:30:59;4.95;;;1.60;;
6757;SDS011;3416;53.074;8.822;2024-02-23T12:33:27;3.80;;;1.45;;
6757;SDS011;3416;53.074;8.822;2024-02-23T12:35:55;2.10;;;1.30;;
6757;SDS011;3416;53.074;8.822;2024-02-23T12:38:25;4.07;;;1.70;;
6757;SDS011;3416;53.074;8.822;2024-02-23T12:40:52;6.20;;;1.77;;
6757;SDS011;3416;53.074;8.822;2024-02-23T12:43:19;4.68;;;1.13;;
6757;SDS011;3416;53.074;8.822;2024-02-23T12:45:49;4.30;;;2.25;;
6757;SDS011;3416;53.074;8.822;2024-02-23T12:48:16;5.57;;;2.28;;
6757;SDS011;3416;53.074;8.822;2024-02-23T12:50:44;4.00;;;1.58;;
6757;SDS011;3416;53.074;8.822;2024-02-23T12:53:11;3.33;;;1.42;;
6757;SDS011;3416;53.074;8.822;2024-02-23T12:55:58;2.88;;;1.45;;
6757;SDS011;3416;53.074;8.822;2024-02-23T12:58:26;2.33;;;1.35;;
6757;SDS011;3416;53.074;8.822;2024-02-23T13:00:53;4.05;;;1.20;;
6757;SDS011;3416;53.074;8.822;2024-02-23T13:03:21;4.55;;;1.80;;
6757;SDS011;3416;53.074;8.822;2024-02-23T13:05:49;3.80;;;1.60;;
6757;SDS011;3416;53.074;8.822;2024-02-23T13:08:16;12.88;;;2.30;;
6757;SDS011;3416;53.074;8.822;2024-02-23T13:10:45;6.68;;;1.42;;
6757;SDS011;3416;53.074;8.822;2024-02-23T13:13:12;3.10;;;1.83;;
6757;SDS011;3416;53.074;8.822;2024-02-23T13:15:40;7.97;;;2.08;;
6757;SDS011;3416;53.074;8.822;2024-02-23T13:18:07;2.72;;;1.40;;
6757;SDS011;3416;53.074;8.822;2024-02-23T13:20:34;3.22;;;1.63;;
6757;SDS011;3416;53.074;8.822;2024-02-23T13:23:01;6.15;;;1.70;;
6757;SDS011;3416;53.074;8.822;2024-02-23T13:25:28;9.35;;;1.80;;
6757;SDS011;3416;53.074;8.822;2024-02-23T13:28:02;12.00;;;4.82;;
6757;SDS011;3416;53.074;8.822;2024-02-23T13:30:30;3.40;;;1.52;;
6757;SDS011;3416;53.074;8.822;2024-02-23T13:32:57;9.13;;;1.60;;
6757;SDS011;3416;53.074;8.822;2024-02-23T13:35:25;5.57;;;2.15;;
6757;SDS011;3416;53.074;8.822;2024-02-23T13:37:52;4.57;;;1.90;;
6757;SDS011;3416;53.074;8.822;2024-02-23T13:40:20;4.72;;;1.60;;
6757;SDS011;3416;53.074;8.822;2024-02-23T13:42:47;4.43;;;2.00;;
6757;SDS011;3416;53.074;8.822;2024-02-23T13:45:16;4.07;;;1.40;;
6757;SDS011;3416;53.074;8.822;2024-02-23T13:47:44;4.65;;;1.55;;
6757;SDS011;3416;53.074;8.822;2024-02-23T13:50:23;3.70;;;1.23;;
6757;SDS011;3416;53.074;8.822;2024-02-23T13:52:50;2.70;;;1.42;;
6757;SDS011;3416;53.074;8.822;2024-02-23T13:55:18;4.32;;;1.30;;
6757;SDS011;3416;53.074;8.822;2024-02-23T13:57:46;4.55;;;1.70;;
6757;SDS011;3416;53.074;8.822;2024-02-23T14:00:14;2.60;;;1.70;;
6757;SDS011;3416;53.074;8.822;2024-02-23T14:02:44;3.65;;;1.40;;
6757;SDS011;3416;53.074;8.822;2024-02-23T14:05:11;3.42;;;1.23;;
6757;SDS011;3416;53.074;8.822;2024-02-23T14:07:38;1.60;;;1.25;;
6757;SDS011;3416;53.074;8.822;2024-02-23T14:10:06;3.38;;;1.20;;
6757;SDS011;3416;53.074;8.822;2024-02-23T14:12:34;5.72;;;1.70;;
6757;SDS011;3416;53.074;8.822;2024-02-23T14:15:01;2.47;;;1.30;;
6757;SDS011;3416;53.074;8.822;2024-02-23T14:17:29;2.65;;;0.85;;
6757;SDS011;3416;53.074;8.822;2024-02-23T14:19:56;6.85;;;1.23;;
6757;SDS011;3416;53.074;8.822;2024-02-23T14:22:23;6.75;;;1.23;;
6757;SDS011;3416;53.074;8.822;2024-02-23T14:24:50;5.47;;;1.38;;
6757;SDS011;3416;53.074;8.822;2024-02-23T14:27:17;4.88;;;1.30;;
6757;SDS011;3416;53.074;8.822;2024-02-23T14:29:44;4.90;;;1.45;;
6757;SDS011;3416;53.074;8.822;2024-02-23T14:32:15;2.38;;;1.30;;
6757;SDS011;3416;53.074;8.822;2024-02-23T14:34:44;3.05;;;1.00;;
6757;SDS011;3416;53.074;8.822;2024-02-23T14:37:12;4.00;;;1.45;;
6757;SDS011;3416;53.074;8.822;2024-02-23T14:39:39;3.30;;;1.50;;
6757;SDS011;3416;53.074;8.822;2024-02-23T14:42:06;2.67;;;1.42;;
6757;SDS011;3416;53.074;8.822;2024-02-23T14:44:34;2.78;;;1.20;;
6757;SDS011;3416;53.074;8.822;2024-02-23T14:47:01;4.13;;;1.83;;
6757;SDS011;3416;53.074;8.822;2024-02-23T14:49:28;6.00;;;1.58;;
6757;SDS011;3416;53.074;8.822;2024-02-23T14:51:58;7.35;;;3.00;;
6757;SDS011;3416;53.074;8.822;2024-02-23T14:54:25;2.85;;;1.70;;
6757;SDS011;3416;53.074;8.822;2024-02-23T14:56:52;5.40;;;3.15;;
6757;SDS011;3416;53.074;8.822;2024-02-23T14:59:18;4.28;;;1.63;;
6757;SDS011;3416;53.074;8.822;2024-02-23T15:01:45;3.45;;;1.65;;
6757;SDS011;3416;53.074;8.822;2024-02-23T15:04:12;4.55;;;1.30;;
6757;SDS011;3416;53.074;8.822;2024-02-23T15:06:39;2.08;;;1.00;;
6757;SDS011;3416;53.074;8.822;2024-02-23T15:09:08;2.45;;;1.38;;
6757;SDS011;3416;53.074;8.822;2024-02-23T15:11:36;3.70;;;1.42;;
6757;SDS011;3416;53.074;8.822;2024-02-23T15:14:03;5.05;;;1.60;;
6757;SDS011;3416;53.074;8.822;2024-02-23T15:16:30;3.38;;;1.27;;
6757;SDS011;3416;53.074;8.822;2024-02-23T15:18:57;2.97;;;1.40;;